Tiempo atmosférico en la estación meteorológica de Ordizia, Gipuzkoa (290 m.)



Fecha
DESCASC
Temp. máxima en grados centígrados (hora)
DESCASC
Temp. mínima en grados centígrados (hora)
DESCASC
Temp. media en grados centígrados
DESCASC
Racha de viento máxima en m/sg (hora)
DESCASC
Velocidad máxima media en intervalos de 10 minutos(hora)
DESCASC
Precipitaciones diarias en mm
DESCASC
Precipitaciones de 00:00 a 06:00 en mm
DESCASC
Precipitaciones de 06:00 a 12:00 en mm
DESCASC
Precipitaciones de 12:00 a 18:00 en mm
DESCASC
Precipitaciones de 18:00 a 24:00 en mm
DESCASC
02-04-2020 15.3 (15:20) 7.3 (23:59) 11.3 8.89 (18:30) 3.61 (16:40) 0.6 0.6 0 0 0
01-04-2020 13.2 (13:20) 5.9 (00:00) 9.5 15 (12:00) 8.33 (12:00) 1.6 0 0 0.4 1.2
31-03-2020 6.8 (16:30) 0.4 (00:00) 3.6 4.44 (14:40) 3.06 (14:40) 2.4 0 1.4 1 0
30-03-2020 6 (16:20) 0.8 (00:00) 3.4 7.78 (00:40) 3.61 (00:40) 3.6 0.4 3 0.2 0
29-03-2020 13.7 (14:30) 1.6 (00:00) 7.6 7.5 (17:50) 4.44 (18:40) 0.6 0 0 0 0.6
28-03-2020 16.1 (13:30) 1.3 (00:00) 8.7 7.78 (15:30) 4.72 (15:30) 0 0 0 0 0
27-03-2020 14.1 (15:50) -0.4 (00:00) 6.9 8.33 (16:30) 5.28 (12:30) 0 0 0 0 0
26-03-2020 11.2 (15:10) 3.4 (00:00) 7.3 12.5 (13:10) 4.72 (14:10) 0.4 0.4 0 0 0
25-03-2020 17 (14:40) 4.7 (00:00) 10.8 8.89 (15:50) 4.72 (14:50) 0 0 0 0 0
24-03-2020 18.4 (14:50) 8.5 (00:00) 13.4 7.78 (16:10) 4.17 (15:50) 0 0 0 0 0
23-03-2020 15.5 (14:00) 8.8 (00:00) 12.2 7.5 (16:10) 3.89 (13:00) 1 0 0 0 1
22-03-2020 17.6 (14:20) 5.4 (07:20) 11.5 9.17 (16:30) 5 (15:20) 0 0 0 0 0
21-03-2020 18.8 (14:30) 9.7 (00:00) 14.2 12.22 (05:30) 6.11 (12:20) 0 0 0 0 0
20-03-2020 16.9 (13:50) 12 (00:00) 14.4 16.39 (12:30) 10.28 (12:20) 0 0 0 0 0
19-03-2020 19.9 (13:30) 11.4 (00:00) 15.6 12.22 (18:00) 6.67 (18:40) 0 0 0 0 0
18-03-2020 19.5 (15:30) 8.3 (00:00) 13.9 3.61 (15:30) 2.5 (15:30) 0 0 0 0 0
17-03-2020 11.6 (17:20) 8.5 (00:00) 10.1 3.06 (20:40) 1.94 (20:40) 1.4 1 0.4 0 0
16-03-2020 8.5 (15:40) 5.6 (00:00) 7 5 (04:50) 3.06 (04:50) 41.8 13 19.4 6.8 2.6
15-03-2020 20.7 (13:30) 2.1 (00:00) 11.4 11.39 (14:10) 7.22 (14:20) 18.4 0 0 0 18.4
14-03-2020 14.1 (14:00) 2.9 (00:00) 8.5 8.33 (13:10) 4.44 (13:30) 0 0 0 0 0
13-03-2020 12.4 (15:00) 7.8 (05:40) 10.1 7.78 (11:50) 3.61 (11:50) 0.2 0 0.2 0 0
12-03-2020 13 (15:30) 9.5 (00:00) 11.3 5.28 (18:30) 2.78 (15:20) 0.8 0 0.6 0 0.2
11-03-2020 20.9 (15:00) 5.4 (00:00) 13.1 6.11 (16:50) 4.17 (16:40) 0 0 0 0 0
10-03-2020 15.5 (15:00) 4.9 (00:00) 10.2 8.06 (17:10) 5.28 (17:10) 0.2 0 0.2 0 0
09-03-2020 10.4 (00:00) 6.8 (00:00) 8.6 9.72 (00:50) 3.89 (00:50) 10.4 6 0.8 3.6 0
08-03-2020 14.3 (16:30) 3.5 (00:00) 8.9 5.83 (23:40) 3.33 (18:50) 0 0 0 0 0
07-03-2020 10.2 (14:30) 5 (00:00) 7.6 9.17 (00:40) 3.61 (14:30) 12 7 1.8 3.2 0
06-03-2020 8 (00:00) 3.4 (00:00) 5.7 20.28 (14:20) 7.22 (14:30) 24.2 1.2 13.4 4.8 4.8
05-03-2020 16.4 (05:40) 7.9 (00:00) 12.1 18.89 (07:50) 11.11 (08:00) 15.4 0 13.4 1 1

Gráficas

Temp. máximas Temp. mínimas Temp. medias Precipitaciones Rachas de viento máximas Velocidades máximas media en intervalos de 10 minutos

Datos horarios

Fecha y hora oficial Temperatura (ºC) Velocidad del viento (km/h) Dirección del viento Racha (km/h) Dirección de racha Precipitación (mm) Presión (hPa) Tendencia (hPa) Humedad (%)
2020-04-03 23:00:00 6.7 3 Oeste 7 Noroeste 0 -- -- 80
2020-04-03 22:00:00 7.6 4 Este 12 Este 0 -- -- 76
2020-04-03 21:00:00 9.1 5 Nordeste 15 Nordeste 0 -- -- 68
2020-04-03 20:00:00 11 7 Nordeste 21 Norte 0 -- -- 62
2020-04-03 19:00:00 12.8 7 Norte 17 Este 0 -- -- 57
2020-04-03 18:00:00 13.3 11 Este 24 Este 0 -- -- 56
2020-04-03 17:00:00 13.7 14 Este 25 Este 0 -- -- 58
2020-04-03 16:00:00 13.4 13 Este 24 Este 0 -- -- 57
2020-04-03 15:00:00 13 9 Nordeste 23 Este 0 -- -- 57
2020-04-03 14:00:00 11.4 9 Sudeste 19 Este 0 -- -- 65
2020-04-03 13:00:00 10.7 4 Sur 13 Sudeste 0 -- -- 71
2020-04-03 12:00:00 8.6 4 Sur 9 Sudeste 0 -- -- 87
2020-04-03 11:00:00 5.8 3 Sudeste 6 Sudeste 0 -- -- 95
2020-04-03 10:00:00 3.6 3 Este 6 Este 0 -- -- 99
2020-04-03 09:00:00 2.8 0 Calma 5 Oeste 0 -- -- 99
2020-04-03 08:00:00 2.5 2 Oeste 4 Sudoeste 0 -- -- 99
2020-04-03 07:00:00 2.6 0 Calma 4 Oeste 0 -- -- 97
2020-04-03 06:00:00 3.4 0 Calma 4 Oeste 0 -- -- 96
2020-04-03 05:00:00 3.7 0 Calma 3 Sur 0 -- -- 95
2020-04-03 04:00:00 4.5 2 Oeste 4 Este 0 -- -- 95
2020-04-03 03:00:00 5.5 0 Calma 4 Este 0 -- -- 91
2020-04-03 02:00:00 6.1 3 Este 5 Este 0 -- -- 91
2020-04-03 01:00:00 6.6 3 Este 6 Norte 0 -- -- 86
2020-04-03 00:00:00 7.3 0 Calma 6 Oeste 0 -- -- 84
2020-04-02 23:00:00 8.2 3 Noroeste 13 Oeste 0 -- -- 77
2020-04-02 22:00:00 8.5 3 Oeste 6 Nordeste 0 -- -- 77
2020-04-02 21:00:00 9.3 5 Nordeste 16 Noroeste 0 -- -- 73
2020-04-02 20:00:00 10.6 9 Norte 23 Norte 0 -- -- 69
2020-04-02 19:00:00 12.2 8 Norte 32 Noroeste 0 -- -- 69
2020-04-02 18:00:00 14.3 5 Norte 27 Oeste 0 -- -- 65
2020-04-02 17:00:00 15 5 Sudoeste 23 Noroeste 0 -- -- 63
2020-04-02 16:00:00 15.1 5 Noroeste 21 Oeste 0 -- -- 62
2020-04-02 15:00:00 14.2 9 Noroeste 29 Noroeste 0 -- -- 71
2020-04-02 14:00:00 13.9 6 Este 18 Este 0 -- -- 71
2020-04-02 13:00:00 11.9 5 Este 11 Sudeste 0 -- -- 91
2020-04-02 12:00:00 10.8 5 Sudeste 8 Sudeste 0 -- -- 100
2020-04-02 11:00:00 9.2 4 Este 6 Sudeste 0 -- -- 100
2020-04-02 10:00:00 8.5 2 Sudeste 5 Sudeste 0 -- -- 100
2020-04-02 09:00:00 8.3 0 Calma 5 Noroeste 0 -- -- 100
2020-04-02 08:00:00 8.3 0 Calma 5 Noroeste 0 -- -- 100
2020-04-02 07:00:00 8.4 2 Noroeste 4 Este 0 -- -- 100
2020-04-02 06:00:00 8.6 3 Noroeste 5 Noroeste 0 -- -- 100
2020-04-02 05:00:00 8.6 2 Oeste 4 Oeste 0 -- -- 100
2020-04-02 04:00:00 8.7 0 Calma 4 Oeste 0 -- -- 100
2020-04-02 03:00:00 8.8 3 Oeste 6 Oeste 0 -- -- 100
2020-04-02 02:00:00 8.9 4 Oeste 5 Oeste 0 -- -- 99
2020-04-02 01:00:00 9 3 Sur 8 Oeste 0.6 -- -- 98
2020-04-02 00:00:00 9.4 5 Oeste 8 Oeste 0.8 -- -- 95
2020-04-01 23:00:00 10.2 0 Calma 6 Noroeste 0 -- -- 86
2020-04-01 22:00:00 10.6 0 Calma 8 Nordeste 0 -- -- 85
2020-04-01 21:00:00 11.3 3 Nordeste 11 Oeste 0 -- -- 79
2020-04-01 20:00:00 11.5 6 Noroeste 9 Noroeste 0 -- -- 80
2020-04-01 19:00:00 11.6 6 Noroeste 11 Sudoeste 0.4 -- -- 82
2020-04-01 18:00:00 13.1 6 Sur 19 Sudoeste 0 -- -- 71
2020-04-01 17:00:00 12.3 13 Sudeste 24 Sur 0.4 -- -- 76
2020-04-01 16:00:00 13.2 16 Sur 41 Sudeste 0 -- -- 69
2020-04-01 15:00:00 13.1 30 Sudeste 46 Sudeste 0 -- -- 65
2020-04-01 14:00:00 13 19 Sur 47 Sudeste 0 -- -- 64
2020-04-01 13:00:00 13 13 Sudeste 39 Sudeste 0 -- -- 69
2020-04-01 12:00:00 12.6 30 Sudeste 54 Este 0 -- -- 70
2020-04-01 11:00:00 12 8 Sur 19 Sudeste 0 -- -- 75
2020-04-01 10:00:00 10.9 3 Norte 16 Oeste 0 -- -- 85
2020-04-01 09:00:00 9.1 3 Sudeste 14 Este 0 -- -- 88
2020-04-01 08:00:00 9.2 3 Noroeste 12 Noroeste 0 -- -- 87
2020-04-01 07:00:00 8.7 4 Sur 16 Este 0 -- -- 89
2020-04-01 06:00:00 8.5 5 Noroeste 14 Sudoeste 0 -- -- 91
2020-04-01 05:00:00 9.2 8 Oeste 14 Oeste 0 -- -- 86
2020-04-01 04:00:00 8.9 5 Oeste 14 Oeste 0 -- -- 92
2020-04-01 03:00:00 6.6 8 Nordeste 19 Sudeste 0 -- -- 100
2020-04-01 02:00:00 5.9 4 Este 16 Sudeste 0 -- -- 100
2020-04-01 01:00:00 5.9 4 Norte 11 Este 0 -- -- 100
2020-04-01 00:00:00 5.9 3 Este 10 Este 0 -- -- 100
2020-03-31 23:00:00 6 4 Oeste 10 Oeste 0 -- -- 99
2020-03-31 22:00:00 6.4 3 Norte 8 Noroeste 0 -- -- 99
2020-03-31 21:00:00 6.4 0 Calma 7 Este 0 -- -- 99
2020-03-31 20:00:00 6.5 3 Sudeste 9 Este 0 -- -- 99
2020-03-31 19:00:00 6.5 5 Este 12 Este 0 -- -- 99
2020-03-31 18:00:00 6.4 7 Este 14 Este 0.2 -- -- 97
2020-03-31 17:00:00 6.7 7 Sudeste 13 Este 0 -- -- 96
2020-03-31 16:00:00 6.5 4 Sudeste 13 Este 0.2 -- -- 96
2020-03-31 15:00:00 5.8 9 Este 16 Sudeste 0.2 -- -- 93
2020-03-31 14:00:00 5.7 4 Sudeste 8 Este 0 -- -- 93
2020-03-31 13:00:00 4.3 5 Sudeste 10 Este 0.4 -- -- 98
2020-03-31 12:00:00 3.1 4 Sudeste 6 Sudeste 0.2 -- -- 100
2020-03-31 11:00:00 2.3 2 Sur 5 Sudeste 0 -- -- 100
2020-03-31 10:00:00 1.3 3 Sudeste 5 Sudeste 0 -- -- 100
2020-03-31 09:00:00 0.8 2 Sudeste 4 Sudeste 0.2 -- -- 100
2020-03-31 08:00:00 0.4 3 Este 4 Sudeste 0.2 -- -- 100
2020-03-31 07:00:00 0.6 2 Sur 8 Sudoeste 0.8 -- -- 100
2020-03-31 06:00:00 0.9 0 Calma 5 Este 0 -- -- 100
2020-03-31 05:00:00 0.7 0 Calma 4 Sudeste 0 -- -- 100
2020-03-31 04:00:00 0.5 2 Sudeste 4 Sur 0 -- -- 99
2020-03-31 03:00:00 0.4 0 Calma 6 Oeste 0 -- -- 99
2020-03-31 02:00:00 0.6 2 Sudoeste 7 Noroeste 0 -- -- 98
2020-03-31 01:00:00 1.2 3 Noroeste 7 Noroeste 0 -- -- 97
2020-03-31 00:00:00 1.5 3 Sudoeste 11 Este 0 -- -- 96
2020-03-30 23:00:00 2 4 Noroeste 6 Sudoeste 0 -- -- 93
2020-03-30 22:00:00 2.8 5 Oeste 9 Oeste 0 -- -- 92
2020-03-30 21:00:00 3.1 3 Oeste 15 Oeste 0 -- -- 89
2020-03-30 20:00:00 3.9 2 Norte 8 Este 0 -- -- 84
2020-03-30 19:00:00 4.7 6 Sudeste 24 Este 0 -- -- 79
2020-03-30 18:00:00 4.9 12 Noroeste 23 Noroeste 0 -- -- 76
2020-03-30 17:00:00 5.6 3 Norte 13 Noroeste 0 -- -- 76
2020-03-30 16:00:00 5.6 7 Sudeste 12 Sudeste 0 -- -- 79
2020-03-30 15:00:00 5.4 5 Sudeste 14 Oeste 0 -- -- 79
2020-03-30 14:00:00 4.4 3 Sur 17 Sudeste 0 -- -- 82
2020-03-30 13:00:00 3.7 5 Norte 13 Noroeste 0.2 -- -- 90
2020-03-30 12:00:00 3.4 6 Noroeste 18 Oeste 0 -- -- 94
2020-03-30 11:00:00 3 9 Este 13 Este 0.4 -- -- 100
2020-03-30 10:00:00 0.9 3 Sudeste 6 Este 0.8 -- -- 100
2020-03-30 09:00:00 0.9 3 Este 10 Este 1.2 -- -- 99
2020-03-30 08:00:00 1.3 4 Sudeste 10 Noroeste 0 -- -- 99
2020-03-30 07:00:00 1.4 8 Este 14 Este 0.6 -- -- 97
2020-03-30 06:00:00 2.4 4 Este 6 Oeste 0.2 -- -- 96
2020-03-30 05:00:00 2.4 0 Calma 6 Sudeste 0 -- -- 94
2020-03-30 04:00:00 2.7 2 Oeste 10 Este 0 -- -- 92
2020-03-30 03:00:00 2.8 5 Nordeste 23 Este 0 -- -- 91
2020-03-30 02:00:00 3.3 8 Nordeste 18 Nordeste 0.2 -- -- 94
2020-03-30 01:00:00 3.7 5 Norte 28 Este 0 -- -- 93
2020-03-30 00:00:00 5.4 5 Sudeste 12 Este 0.2 -- -- 92
2020-03-29 23:00:00 6.2 3 Noroeste 14 Oeste 0.2 -- -- 90
2020-03-29 22:00:00 6.8 6 Norte 19 Noroeste 0 -- -- 90
2020-03-29 21:00:00 7.4 6 Noroeste 15 Noroeste 0.2 -- -- 91
2020-03-29 20:00:00 7.9 8 Noroeste 23 Norte 0 -- -- 91
2020-03-29 19:00:00 8.2 12 Noroeste 26 Noroeste 0 -- -- 89
2020-03-29 18:00:00 8.7 10 Noroeste 27 Norte 0 -- -- 88
2020-03-29 17:00:00 9 8 Noroeste 22 Noroeste 0 -- -- 90
2020-03-29 16:00:00 10.5 9 Noroeste 27 Noroeste 0 -- -- 76
2020-03-29 15:00:00 12.2 8 Noroeste 20 Este 0 -- -- 64
2020-03-29 14:00:00 12.5 6 Sudeste 19 Norte 0 -- -- 65
2020-03-29 13:00:00 11.9 8 Noroeste 21 Noroeste 0 -- -- 65
2020-03-29 12:00:00 11.2 6 Sudeste 12 Este 0 -- -- 74
2020-03-29 11:00:00 7.2 3 Sudeste 8 Sudeste 0 -- -- 83
2020-03-29 10:00:00 4.9 4 Sudeste 6 Este 0 -- -- 94
2020-03-29 09:00:00 2.2 0 Calma 4 Oeste 0 -- -- 99
2020-03-29 08:00:00 1.8 3 Noroeste -- -- 0 -- -- 97
2020-03-29 07:00:00 2.1 2 Noroeste 5 Noroeste 0 -- -- 96
2020-03-29 06:00:00 2.3 0 Calma 4 Oeste 0 -- -- 96
2020-03-29 05:00:00 2.5 3 Sudoeste 6 Oeste 0 -- -- 95
2020-03-29 03:00:00 4 0 Calma 5 Oeste 0 -- -- 90
2020-03-29 01:00:00 5.1 2 Oeste 5 Oeste 0 -- -- 86
2020-03-29 00:00:00 5.7 3 Oeste 8 Oeste 0 -- -- 83
2020-03-28 23:00:00 6.9 2 Sudeste 6 Noroeste 0 -- -- 78
2020-03-28 22:00:00 8.1 2 Sur 4 Sudoeste 0 -- -- 72
2020-03-28 21:00:00 9.5 4 Norte 13 Este 0 -- -- 67
2020-03-28 20:00:00 10.5 6 Este 17 Este 0 -- -- 67
2020-03-28 19:00:00 12.5 9 Nordeste 20 Nordeste 0 -- -- 56
2020-03-28 18:00:00 13.9 9 Nordeste 26 Nordeste 0 -- -- 52
2020-03-28 17:00:00 15.2 8 Nordeste 17 Nordeste 0 -- -- 52
2020-03-28 16:00:00 15.4 8 Este 28 Este 0 -- -- 52
2020-03-28 15:00:00 14.9 12 Este 25 Este 0 -- -- 55
2020-03-28 14:00:00 15.3 14 Este 23 Este 0 -- -- 52
2020-03-28 13:00:00 15.4 14 Este 24 Este 0 -- -- 49
2020-03-28 12:00:00 14.4 10 Sudeste 17 Este 0 -- -- 55
2020-03-28 11:00:00 11.5 4 Sudeste 11 Sudeste 0 -- -- 64
2020-03-28 10:00:00 7.9 4 Sudeste 9 Sudeste 0 -- -- 80
2020-03-28 09:00:00 3.9 2 Noroeste 8 Norte 0 -- -- 98
2020-03-28 08:00:00 1.6 0 Calma 3 Noroeste 0 -- -- 99
2020-03-28 07:00:00 1.3 0 Calma 4 Oeste 0 -- -- 99
2020-03-28 06:00:00 1.7 2 Oeste 5 Noroeste 0 -- -- 99
2020-03-28 05:00:00 1.8 3 Oeste 6 Noroeste 0 -- -- 98
2020-03-28 04:00:00 2.2 6 Noroeste 7 Noroeste 0 -- -- 98
2020-03-28 03:00:00 2.8 3 Oeste 6 Oeste 0 -- -- 96
2020-03-28 02:00:00 3.4 4 Sudoeste 5 Sudoeste 0 -- -- 93
2020-03-28 01:00:00 3.9 3 Oeste 4 Oeste 0 -- -- 93
2020-03-28 00:00:00 4.6 3 Oeste 5 Noroeste 0 -- -- 91
2020-03-27 23:00:00 5.5 3 Oeste 5 Oeste 0 -- -- 87
2020-03-27 22:00:00 6.5 2 Sur 6 Oeste 0 -- -- 81
2020-03-27 21:00:00 7.6 3 Sudeste 7 Nordeste 0 -- -- 78
2020-03-27 20:00:00 8.6 4 Nordeste 12 Nordeste 0 -- -- 72
2020-03-27 19:00:00 9.7 6 Norte 21 Nordeste 0 -- -- 68
2020-03-27 18:00:00 10.9 9 Nordeste 28 Este 0 -- -- 62
2020-03-27 17:00:00 12.5 13 Este 30 Este 0 -- -- 57
2020-03-27 16:00:00 14 8 Nordeste 24 Este 0 -- -- 52
2020-03-27 15:00:00 13.8 10 Este 23 Este 0 -- -- 48
2020-03-27 14:00:00 13.5 14 Este 25 Este 0 -- -- 46
2020-03-27 13:00:00 12.2 14 Este 30 Este 0 -- -- 52
2020-03-27 12:00:00 11.7 17 Sudeste 23 Sudeste 0 -- -- 57
2020-03-27 11:00:00 9.7 8 Sudeste 12 Sudeste 0 -- -- 66
2020-03-27 10:00:00 6.1 5 Sudeste 9 Sudeste 0 -- -- 78
2020-03-27 09:00:00 2.8 6 Sudeste 9 Este 0 -- -- 92
2020-03-27 08:00:00 0 0 Calma 4 Oeste 0 -- -- 97
2020-03-27 07:00:00 -0.4 3 Noroeste 4 Noroeste 0 -- -- 97
2020-03-27 06:00:00 0 3 Oeste 5 Noroeste 0 -- -- 95
2020-03-27 05:00:00 0.5 2 Sudoeste 5 Noroeste 0 -- -- 94
2020-03-27 04:00:00 1 3 Sudeste 7 Noroeste 0 -- -- 91
2020-03-27 03:00:00 1.5 0 Calma 6 Sudeste 0 -- -- 89
2020-03-27 02:00:00 2.3 4 Oeste 6 Oeste 0 -- -- 86
2020-03-27 01:00:00 2.9 2 Oeste 5 Sudeste 0 -- -- 84
2020-03-27 00:00:00 3.4 2 Oeste 8 Sudoeste 0 -- -- 81
2020-03-26 23:00:00 4.1 3 Sudoeste 6 Sudoeste 0 -- -- 77
2020-03-26 22:00:00 5 3 Sur 7 Norte 0 -- -- 71
2020-03-26 21:00:00 6.2 4 Noroeste 10 Norte 0 -- -- 63
2020-03-26 20:00:00 6.9 5 Nordeste 12 Noroeste 0 -- -- 62
2020-03-26 19:00:00 8.8 4 Noroeste 15 Nordeste 0 -- -- 55
2020-03-26 18:00:00 10.1 5 Oeste 20 Este 0 -- -- 55
2020-03-26 17:00:00 10.3 8 Nordeste 29 Norte 0 -- -- 53
2020-03-26 16:00:00 11.1 8 Noroeste 35 Noroeste 0 -- -- 47
2020-03-26 15:00:00 11.1 8 Noroeste 36 Noroeste 0 -- -- 49
2020-03-26 14:00:00 10.1 14 Norte 45 Oeste 0 -- -- 50
2020-03-26 13:00:00 9.9 10 Norte 34 Norte 0 -- -- 54
2020-03-26 12:00:00 10.4 12 Este 41 Noroeste 0 -- -- 58
2020-03-26 11:00:00 9.5 13 Norte 35 Nordeste 0 -- -- 57
2020-03-26 10:00:00 9.5 8 Norte 27 Noroeste 0 -- -- 61
2020-03-26 09:00:00 9 7 Oeste 21 Noroeste 0 -- -- 64
2020-03-26 08:00:00 8.1 5 Sudoeste 13 Noroeste 0 -- -- 78
2020-03-26 07:00:00 8 2 Sur 16 Noroeste 0 -- -- 82
2020-03-26 06:00:00 7.7 5 Oeste 28 Noroeste 0.2 -- -- 85
2020-03-26 05:00:00 7.4 5 Oeste 13 Oeste 0 -- -- 89
2020-03-26 04:00:00 7.3 6 Oeste 17 Oeste 0.2 -- -- 87
2020-03-26 03:00:00 7.8 8 Oeste 26 Oeste 0 -- -- 82
2020-03-26 02:00:00 7.6 11 Oeste 22 Oeste 0 -- -- 82
2020-03-26 01:00:00 7.6 6 Sudoeste 12 Sudoeste 0 -- -- 80
2020-03-26 00:00:00 7.4 5 Sudoeste 13 Sudoeste 0 -- -- 78
2020-03-25 23:00:00 7.1 4 Oeste 14 Oeste 0 -- -- 75
2020-03-25 22:00:00 6.8 6 Oeste 11 Oeste 0 -- -- 77
2020-03-25 21:00:00 7.7 7 Noroeste 18 Noroeste 0 -- -- 72
2020-03-25 20:00:00 9.1 10 Noroeste 26 Oeste 0 -- -- 70
2020-03-25 19:00:00 11 8 Noroeste 26 Noroeste 0 -- -- 64
2020-03-25 18:00:00 13.6 15 Noroeste 27 Noroeste 0 -- -- 59
2020-03-25 17:00:00 15.8 10 Oeste 26 Oeste 0 -- -- 51
2020-03-25 16:00:00 16.3 12 Noroeste 32 Noroeste 0 -- -- 54
2020-03-25 15:00:00 16.8 14 Noroeste 31 Noroeste 0 -- -- 52
2020-03-25 14:00:00 16.2 9 Noroeste 26 Sudoeste 0 -- -- 58
2020-03-25 13:00:00 16.3 4 Sur 22 Sudoeste 0 -- -- 55
2020-03-25 12:00:00 15.5 12 Noroeste 22 Noroeste 0 -- -- 50
2020-03-25 11:00:00 13.8 4 Sudeste 13 Sudeste 0 -- -- 72
2020-03-25 10:00:00 9.9 3 Sudeste 9 Sudeste 0 -- -- 89
2020-03-25 09:00:00 6 6 Este 8 Este 0 -- -- 100
2020-03-25 08:00:00 4.7 2 Oeste 4 Oeste 0 -- -- 100
2020-03-25 07:00:00 5 3 Noroeste 5 Oeste 0 -- -- 100
2020-03-25 06:00:00 4.7 3 Sudoeste 6 Sudoeste 0 -- -- 99
2020-03-25 05:00:00 5.1 3 Sudoeste 7 Oeste 0 -- -- 99
2020-03-25 04:00:00 5.7 4 Oeste 6 Oeste 0 -- -- 98
2020-03-25 03:00:00 6.5 2 Noroeste 4 Noroeste 0 -- -- 97
2020-03-25 02:00:00 7 2 Noroeste 4 Noroeste 0 -- -- 95
2020-03-25 01:00:00 7.7 3 Sudoeste 6 Sudoeste 0 -- -- 93
2020-03-25 00:00:00 8.5 4 Oeste 5 Oeste 0 -- -- 90
2020-03-24 23:00:00 9.3 3 Oeste 12 Sudoeste 0 -- -- 87
2020-03-24 22:00:00 10.6 5 Sudoeste 8 Oeste 0 -- -- 82
2020-03-24 21:00:00 11.8 2 Este 13 Este 0 -- -- 78
2020-03-24 20:00:00 13.4 8 Este 14 Nordeste 0 -- -- 69
2020-03-24 19:00:00 15.2 5 Nordeste 15 Este 0 -- -- 60
2020-03-24 18:00:00 16.4 8 Nordeste 24 Este 0 -- -- 57
2020-03-24 17:00:00 16.7 9 Este 28 Nordeste 0 -- -- 60
2020-03-24 16:00:00 17.3 12 Este 26 Este 0 -- -- 61
2020-03-24 15:00:00 18.1 10 Este 21 Este 0 -- -- 64
2020-03-24 14:00:00 17.2 8 Este 14 Este 0 -- -- 55
2020-03-24 13:00:00 17.1 5 Este 12 Este 0 -- -- 59
2020-03-24 12:00:00 16.3 4 Sudoeste 12 Este 0 -- -- 63
2020-03-24 11:00:00 13.4 5 Este 11 Sudeste 0 -- -- 87
2020-03-24 10:00:00 11.4 5 Sudeste 9 Sudeste 0 -- -- 100
2020-03-24 09:00:00 9.1 2 Sur 6 Oeste 0 -- -- 100
2020-03-24 08:00:00 8.6 4 Sur 10 Noroeste 0 -- -- 100
2020-03-24 07:00:00 8.8 3 Sudoeste 8 Noroeste 0 -- -- 100
2020-03-24 06:00:00 8.8 4 Este 12 Oeste 0 -- -- 100
2020-03-24 05:00:00 8.8 4 Oeste 10 Oeste 0 -- -- 100
2020-03-24 04:00:00 9 3 Noroeste 8 Noroeste 0 -- -- 100
2020-03-24 03:00:00 9.1 6 Oeste 9 Noroeste 0 -- -- 99
2020-03-24 02:00:00 9.6 2 Noroeste 9 Oeste 0 -- -- 100
2020-03-24 01:00:00 9.9 2 Noroeste 6 Noroeste 0 -- -- 100
2020-03-24 00:00:00 9.9 2 Oeste 6 Oeste 0 -- -- 99
2020-03-23 23:00:00 10.2 4 Noroeste 6 Noroeste 0 -- -- 98
2020-03-23 22:00:00 10.4 3 Nordeste 6 Este 0 -- -- 97
2020-03-23 21:00:00 10.9 6 Este 13 Este 1 -- -- 95
2020-03-23 20:00:00 11.7 7 Este 16 Este 0 -- -- 89
2020-03-23 19:00:00 12.5 6 Nordeste 19 Este 0 -- -- 84
2020-03-23 18:00:00 13.4 7 Este 22 Este 0 -- -- 81
2020-03-23 17:00:00 13.8 9 Este 27 Este 0 -- -- 78
2020-03-23 16:00:00 14.4 11 Este 26 Este 0 -- -- 74
2020-03-23 15:00:00 15 10 Este 19 Este 0 -- -- 69
2020-03-23 14:00:00 15.5 13 Este 21 Este 0 -- -- 67
2020-03-23 13:00:00 14.2 14 Este 23 Este 0 -- -- 76
2020-03-23 12:00:00 13.6 12 Este 19 Sudeste 0 -- -- 80
2020-03-23 11:00:00 11.9 8 Este 13 Este 0 -- -- 85
2020-03-23 10:00:00 10.8 3 Sudeste 6 Sudeste 0 -- -- 91
2020-03-23 09:00:00 9.3 2 Noroeste 4 Noroeste 0 -- -- 97
2020-03-23 08:00:00 9 0 Calma 6 Nordeste 0 -- -- 97
2020-03-23 07:00:00 8.9 4 Noroeste 5 Noroeste 0 -- -- 95
2020-03-23 06:00:00 8.9 0 Calma 6 Este 0 -- -- 94
2020-03-23 05:00:00 9 3 Este 6 Nordeste 0 -- -- 94
2020-03-23 04:00:00 9 2 Sudoeste 5 Sudeste 0 -- -- 93
2020-03-23 03:00:00 8.9 3 Sudeste 5 Sudeste 0 -- -- 92
2020-03-23 02:00:00 9.1 2 Noroeste 6 Noroeste 0 -- -- 91
2020-03-23 01:00:00 9.4 3 Noroeste 7 Noroeste 0 -- -- 91
2020-03-23 00:00:00 9.3 5 Noroeste 7 Noroeste 0 -- -- 91
2020-03-22 23:00:00 9.8 2 Noroeste 6 Norte 0 -- -- 86
2020-03-22 22:00:00 10.5 2 Este 9 Este 0 -- -- 85
2020-03-22 21:00:00 11.8 3 Sur 12 Nordeste 0 -- -- 79
2020-03-22 20:00:00 11.9 8 Nordeste 14 Norte 0 -- -- 80
2020-03-22 19:00:00 12 7 Nordeste 20 Nordeste 0 -- -- 80
2020-03-22 18:00:00 13 7 Nordeste 24 Sudeste 0 -- -- 77
2020-03-22 17:00:00 13.8 17 Este 33 Este 0 -- -- 75
2020-03-22 16:00:00 14.9 18 Este 32 Nordeste 0 -- -- 72
2020-03-22 15:00:00 16.6 15 Este 29 Este 0 -- -- 64
2020-03-22 14:00:00 17.3 12 Este 26 Este 0 -- -- 64
2020-03-22 13:00:00 16.8 16 Este 23 Este 0 -- -- 62
2020-03-22 12:00:00 15.4 6 Sudeste 13 Sudeste 0 -- -- 62
2020-03-22 11:00:00 12.8 6 Sur 11 Sur 0 -- -- 79
2020-03-22 10:00:00 8.9 0 Calma 5 Noroeste 0 -- -- 90
2020-03-22 09:00:00 7.4 3 Nordeste 6 Este 0 -- -- 92
2020-03-22 08:00:00 5.6 0 Calma 4 Oeste 0 -- -- 94
2020-03-22 07:00:00 5.7 0 Calma 4 Noroeste 0 -- -- 91
2020-03-22 06:00:00 6.2 3 Oeste 6 Sudoeste 0 -- -- 89
2020-03-22 05:00:00 6.2 3 Norte 6 Noroeste 0 -- -- 89
2020-03-22 04:00:00 6.9 4 Noroeste 8 Este 0 -- -- 85
2020-03-22 03:00:00 6.9 3 Norte 8 Oeste 0 -- -- 86
2020-03-22 02:00:00 7.2 2 Sudoeste 9 Noroeste 0 -- -- 84
2020-03-22 01:00:00 8.6 5 Noroeste 9 Oeste 0 -- -- 78
2020-03-22 00:00:00 9.8 4 Oeste 9 Oeste 0 -- -- 70
2020-03-21 23:00:00 11.1 3 Noroeste 12 Noroeste 0 -- -- 65
2020-03-21 22:00:00 12.3 7 Noroeste 15 Sudoeste 0 -- -- 55
2020-03-21 21:00:00 13.2 4 Oeste 15 Sudoeste 0 -- -- 53
2020-03-21 20:00:00 14.5 3 Oeste 9 Sudoeste 0 -- -- 49
2020-03-21 19:00:00 16 3 Sudoeste 20 Sur 0 -- -- 46
2020-03-21 18:00:00 17.2 8 Sur 24 Sur 0 -- -- 42
2020-03-21 17:00:00 18.2 10 Sur 26 Sudeste 0 -- -- 43
2020-03-21 16:00:00 18.5 11 Sudeste 24 Sudeste 0 -- -- 44
2020-03-21 15:00:00 18.4 17 Sudeste 27 Sudeste 0 -- -- 44
2020-03-21 14:00:00 18.4 9 Sur 30 Sudeste 0 -- -- 48
2020-03-21 13:00:00 17.2 18 Sudeste 39 Sudeste 0 -- -- 48
2020-03-21 12:00:00 16.6 17 Sudeste 37 Sudeste 0 -- -- 52
2020-03-21 11:00:00 15.9 12 Sudeste 30 Sudeste 0 -- -- 45
2020-03-21 10:00:00 13.6 5 Sudoeste 22 Oeste 0 -- -- 52
2020-03-21 09:00:00 11.8 12 Oeste 27 Oeste 0 -- -- 64
2020-03-21 08:00:00 11.1 14 Oeste 31 Oeste 0 -- -- 62
2020-03-21 07:00:00 11.2 13 Oeste 32 Sudeste 0 -- -- 61
2020-03-21 06:00:00 12.4 9 Oeste 44 Sudeste 0 -- -- 56
2020-03-21 05:00:00 11.7 8 Oeste 19 Sudeste 0 -- -- 66
2020-03-21 04:00:00 12.1 9 Oeste 27 Sudoeste 0 -- -- 66
2020-03-21 03:00:00 12.6 12 Sur 22 Sudeste 0 -- -- 65
2020-03-21 02:00:00 13 12 Sur 27 Sur 0 -- -- 63
2020-03-21 01:00:00 13.5 15 Sur 43 Sur 0 -- -- 61
2020-03-21 00:00:00 13.6 9 Sudeste 26 Sudeste 0 -- -- 62
2020-03-20 23:00:00 13.7 3 Sur 30 Este 0 -- -- 63
2020-03-20 22:00:00 13.8 7 Sudoeste 22 Sur 0 -- -- 63
2020-03-20 21:00:00 14 8 Sur 33 Sudeste 0 -- -- 62
2020-03-20 20:00:00 14.1 13 Sudeste 35 Sudeste 0 -- -- 62
2020-03-20 19:00:00 14.9 10 Sur 39 Sudeste 0 -- -- 57
2020-03-20 18:00:00 15.5 21 Sudeste 44 Sudeste 0 -- -- 55
2020-03-20 17:00:00 15.5 26 Este 44 Este 0 -- -- 56
2020-03-20 16:00:00 16.5 27 Sudeste 48 Sudeste 0 -- -- 50
2020-03-20 15:00:00 16.4 27 Sudeste 48 Sudeste 0 -- -- 50
2020-03-20 14:00:00 16.7 17 Sur 39 Sudeste 0 -- -- 51
2020-03-20 13:00:00 15.5 29 Sudeste 59 Sudeste 0 -- -- 50
2020-03-20 12:00:00 15.4 29 Sur 58 Sudeste 0 -- -- 50
2020-03-20 11:00:00 15.5 22 Sur 45 Sur 0 -- -- 47
2020-03-20 10:00:00 14.4 15 Sur 47 Sudeste 0 -- -- 49
2020-03-20 09:00:00 13.5 14 Sur 32 Este 0 -- -- 50
2020-03-20 08:00:00 12.2 9 Sur 38 Sur 0 -- -- 53
2020-03-20 07:00:00 12.1 13 Sudoeste 30 Sur 0 -- -- 53
2020-03-20 06:00:00 12.6 13 Sudeste 45 Sudeste 0 -- -- 53
2020-03-20 05:00:00 13.4 18 Sudeste 40 Sudeste 0 -- -- 48
2020-03-20 04:00:00 13.4 12 Sudeste 39 Este 0 -- -- 50
2020-03-20 03:00:00 13.6 17 Sudeste 34 Sudeste 0 -- -- 52
2020-03-20 02:00:00 13.9 12 Sudoeste 24 Sur 0 -- -- 56
2020-03-20 01:00:00 14.3 8 Sudoeste 36 Sur 0 -- -- 59
2020-03-20 00:00:00 14.6 9 Sur 22 Sur 0 -- -- 61
2020-03-19 23:00:00 14.7 6 Este 21 Este 0 -- -- 61
2020-03-19 22:00:00 14.9 8 Sur 20 Sudoeste 0 -- -- 61
2020-03-19 21:00:00 15.8 10 Sudeste 21 Este 0 -- -- 50
2020-03-19 20:00:00 16.6 11 Este 38 Sudeste 0 -- -- 41
2020-03-19 19:00:00 17 21 Sudeste 42 Este 0 -- -- 44
2020-03-19 18:00:00 18.2 20 Sudeste 44 Sudeste 0 -- -- 43
2020-03-19 17:00:00 19 15 Sudeste 36 Sudeste 0 -- -- 44
2020-03-19 16:00:00 19.3 20 Sudeste 41 Sudeste 0 -- -- 45
2020-03-19 15:00:00 19.3 15 Sudeste 31 Sudeste 0 -- -- 47
2020-03-19 14:00:00 19.5 14 Sudeste 24 Este 0 -- -- 49
2020-03-19 13:00:00 19.5 11 Sur 21 Sur 0 -- -- 53
2020-03-19 12:00:00 18.9 9 Sur 22 Sudoeste 0 -- -- 51
2020-03-19 11:00:00 18.5 8 Sudoeste 21 Sur 0 -- -- 54
2020-03-19 10:00:00 15.8 10 Oeste 23 Oeste 0 -- -- 56
2020-03-19 09:00:00 14.8 9 Oeste 17 Oeste 0 -- -- 60
2020-03-19 08:00:00 13.7 11 Oeste 17 Noroeste 0 -- -- 65
2020-03-19 07:00:00 13.4 7 Oeste 13 Oeste 0 -- -- 66
2020-03-19 06:00:00 12.4 2 Oeste 7 Sudeste 0 -- -- 79
2020-03-19 05:00:00 13.1 3 Oeste 17 Oeste 0 -- -- 76
2020-03-19 04:00:00 14 6 Oeste 21 Oeste 0 -- -- 74
2020-03-19 03:00:00 14 9 Oeste 18 Oeste 0 -- -- 74
2020-03-19 02:00:00 13.1 6 Oeste 12 Oeste 0 -- -- 77
2020-03-19 01:00:00 11.5 4 Noroeste 8 Noroeste 0 -- -- 87
2020-03-19 00:00:00 12 0 Calma 6 Este 0 -- -- 87
2020-03-18 23:00:00 13.1 4 Noroeste 7 Noroeste 0 -- -- 76
2020-03-18 22:00:00 13.4 2 Este 8 Noroeste 0 -- -- 79
2020-03-18 21:00:00 14.6 2 Sudeste 4 Sudeste 0 -- -- 81
2020-03-18 20:00:00 16.4 0 Calma 8 Noroeste 0 -- -- 70
2020-03-18 19:00:00 17.9 4 Oeste 10 Nordeste 0 -- -- 63
2020-03-18 18:00:00 19 2 Norte 10 Norte 0 -- -- 64
2020-03-18 17:00:00 19.4 4 Nordeste 9 Este 0 -- -- 62
2020-03-18 16:00:00 19.3 8 Este 13 Este 0 -- -- 64
2020-03-18 15:00:00 19.1 6 Este 11 Este 0 -- -- 61
2020-03-18 14:00:00 17.9 8 Este 13 Este 0 -- -- 65
2020-03-18 13:00:00 15.5 6 Este 10 Este 0 -- -- 93
2020-03-18 12:00:00 13.4 4 Sudeste 9 Sudeste 0 -- -- 100
2020-03-18 11:00:00 10.7 3 Oeste 5 Oeste 0 -- -- 100
2020-03-18 10:00:00 9.3 2 Sur 5 Sudeste 0 -- -- 100
2020-03-18 09:00:00 8.6 2 Sudoeste 4 Sudeste 0 -- -- 100
2020-03-18 08:00:00 8.4 3 Oeste 7 Oeste 0 -- -- 100
2020-03-18 07:00:00 8.5 3 Noroeste 5 Oeste 0 -- -- 100
2020-03-18 06:00:00 8.6 2 Noroeste 4 Noroeste 0 -- -- 100
2020-03-18 05:00:00 8.8 2 Oeste 8 Oeste 0 -- -- 100
2020-03-18 04:00:00 9.1 4 Oeste 8 Noroeste 0 -- -- 100
2020-03-18 03:00:00 9.5 0 Calma 8 Noroeste 0 -- -- 100
2020-03-18 02:00:00 9.6 4 Oeste 5 Oeste 0 -- -- 100
2020-03-18 01:00:00 9.8 0 Calma 6 Sudoeste 0 -- -- 100
2020-03-18 00:00:00 9.9 0 Calma 3 Noroeste 0 -- -- 100
2020-03-17 23:00:00 10.1 0 Calma 5 Este 0 -- -- 100
2020-03-17 22:00:00 10.1 0 Calma 9 Este 0 -- -- 100
2020-03-17 21:00:00 10.4 6 Este 11 Este 0 -- -- 100
2020-03-17 20:00:00 10.7 3 Este 4 Este 0 -- -- 100
2020-03-17 19:00:00 11.1 3 Este 6 Este 0 -- -- 99
2020-03-17 18:00:00 11.4 2 Sur 7 Sur 0 -- -- 99
2020-03-17 17:00:00 11.5 3 Sur 6 Sudeste 0 -- -- 100
2020-03-17 16:00:00 11.3 3 Sudeste 6 Sudeste 0 -- -- 100
2020-03-17 15:00:00 11.4 3 Sur 7 Sur 0 -- -- 100
2020-03-17 14:00:00 10.6 0 Calma 5 Sudeste 0 -- -- 100
2020-03-17 13:00:00 10.1 2 Oeste 4 Oeste 0 -- -- 100
2020-03-17 12:00:00 10 3 Oeste 4 Oeste 0 -- -- 100
2020-03-17 11:00:00 9.6 0 Calma 4 Este 0 -- -- 100
2020-03-17 10:00:00 9.3 3 Este 5 Sudeste 0 -- -- 100
2020-03-17 09:00:00 9 0 Calma 5 Sudeste 0 -- -- 100
2020-03-17 08:00:00 8.8 4 Noroeste 6 Noroeste 0 -- -- 100
2020-03-17 07:00:00 8.7 0 Calma 3 Sudeste 0.4 -- -- 100
2020-03-17 06:00:00 8.7 0 Calma 4 Sudeste 0.2 -- -- 100
2020-03-17 05:00:00 8.6 3 Sudeste 4 Sudeste 0 -- -- 100
2020-03-17 04:00:00 8.6 0 Calma 3 Sudeste 0 -- -- 100
2020-03-17 03:00:00 8.5 0 Calma 3 Noroeste 0.4 -- -- 100
2020-03-17 02:00:00 8.5 2 Oeste 4 Oeste 0.2 -- -- 100
2020-03-17 01:00:00 8.5 2 Oeste 5 Oeste 0.2 -- -- 100
2020-03-17 00:00:00 8.5 3 Oeste 5 Oeste 0.4 -- -- 100
2020-03-16 23:00:00 8.4 2 Oeste 3 Oeste 0.2 -- -- 100
2020-03-16 22:00:00 8.3 2 Sudoeste 6 Oeste 0.4 -- -- 100
2020-03-16 21:00:00 8.4 2 Sudeste 9 Sudeste 0.6 -- -- 100
2020-03-16 20:00:00 8.3 0 Calma 4 Sudeste 0.4 -- -- 100
2020-03-16 19:00:00 8.2 2 Sudeste 7 Este 0.6 -- -- 100
2020-03-16 18:00:00 8.2 4 Este 7 Este 0.6 -- -- 100
2020-03-16 17:00:00 8.4 4 Este 9 Este 0.4 -- -- 100
2020-03-16 16:00:00 8.4 2 Sudeste 5 Sudeste 0.4 -- -- 100
2020-03-16 15:00:00 8.1 2 Oeste 5 Este 1.4 -- -- 100
2020-03-16 14:00:00 7.7 0 Calma 6 Sudoeste 2.2 -- -- 100
2020-03-16 13:00:00 7.1 2 Sudoeste 5 Este 1.8 -- -- 100
2020-03-16 12:00:00 6.7 3 Nordeste 6 Este 3.2 -- -- 100
2020-03-16 11:00:00 6.1 3 Nordeste 10 Este 3 -- -- 100
2020-03-16 10:00:00 6 3 Noroeste 7 Oeste 4.8 -- -- 100
2020-03-16 09:00:00 5.6 7 Oeste 12 Oeste 3.4 -- -- 100
2020-03-16 08:00:00 5.6 4 Sudoeste 10 Sudoeste 2.2 -- -- 100
2020-03-16 07:00:00 5.7 5 Sudoeste 13 Sudoeste 2.8 -- -- 100
2020-03-16 06:00:00 6.1 5 Oeste 16 Oeste 2.6 -- -- 100
2020-03-16 05:00:00 6.2 5 Oeste 18 Oeste 1 -- -- 100
2020-03-16 04:00:00 6.6 2 Noroeste 13 Oeste 4 -- -- 100
2020-03-16 03:00:00 6.8 5 Oeste 15 Noroeste 1.8 -- -- 99
2020-03-16 02:00:00 6.9 4 Este 6 Sudeste 1.2 -- -- 99
2020-03-16 01:00:00 7.1 2 Sudoeste 14 Sudoeste 2.4 -- -- 99
2020-03-16 00:00:00 7.4 11 Oeste 24 Oeste 3 -- -- 99
2020-03-15 23:00:00 8.6 4 Norte 15 Sur 0.4 -- -- 99
2020-03-15 22:00:00 8.8 7 Este 19 Este 1 -- -- 99
2020-03-15 21:00:00 9 4 Nordeste 10 Oeste 7 -- -- 97
2020-03-15 20:00:00 9.6 3 Sudoeste 14 Norte 6.4 -- -- 95
2020-03-15 19:00:00 10.6 7 Norte 21 Noroeste 0.6 -- -- 85
2020-03-15 18:00:00 11.8 10 Norte 25 Este 0 -- -- 79
2020-03-15 17:00:00 13.2 17 Este 36 Este 0 -- -- 80
2020-03-15 16:00:00 15.2 21 Este 39 Este 0 -- -- 72
2020-03-15 15:00:00 20.5 21 Sudeste 41 Sudeste 0 -- -- 49
2020-03-15 14:00:00 20.7 12 Sur 35 Este 0 -- -- 47
2020-03-15 13:00:00 19.9 10 Sur 28 Sudeste 0 -- -- 45
2020-03-15 12:00:00 18.9 10 Sur 29 Sudeste 0 -- -- 43
2020-03-15 11:00:00 17.3 14 Sur 30 Sudeste 0 -- -- 48
2020-03-15 10:00:00 15.4 10 Sudoeste 27 Sudeste 0 -- -- 51
2020-03-15 09:00:00 12.7 10 Oeste 30 Oeste 0 -- -- 60
2020-03-15 08:00:00 10.8 13 Oeste 31 Oeste 0 -- -- 61
2020-03-15 07:00:00 8.1 10 Oeste 20 Oeste 0 -- -- 71
2020-03-15 06:00:00 2.6 8 Oeste 18 Noroeste 0 -- -- 100
2020-03-15 05:00:00 2.2 4 Oeste 12 Noroeste 0 -- -- 100
2020-03-15 04:00:00 2.6 3 Sudoeste 6 Oeste 0 -- -- 99
2020-03-15 03:00:00 3.1 3 Oeste 5 Noroeste 0 -- -- 98
2020-03-15 02:00:00 3.8 3 Oeste 5 Noroeste 0 -- -- 97
2020-03-15 01:00:00 4.5 3 Oeste 5 Oeste 0 -- -- 95
2020-03-15 00:00:00 5.5 2 Noroeste 5 Noroeste 0 -- -- 93
2020-03-14 23:00:00 6 3 Sudoeste 6 Oeste 0 -- -- 90
2020-03-14 22:00:00 7.1 4 Oeste 7 Oeste 0 -- -- 86
2020-03-14 21:00:00 8.4 3 Oeste 8 Este 0 -- -- 81
2020-03-14 20:00:00 9.7 4 Nordeste 13 Nordeste 0 -- -- 73
2020-03-14 19:00:00 11.4 7 Nordeste 13 Nordeste 0 -- -- 67
2020-03-14 18:00:00 13 6 Nordeste 20 Nordeste 0 -- -- 62
2020-03-14 17:00:00 13.1 12 Este 23 Este 0 -- -- 63
2020-03-14 16:00:00 13.6 11 Este 24 Este 0 -- -- 58
2020-03-14 15:00:00 13.7 13 Este 25 Este 0 -- -- 63
2020-03-14 14:00:00 14.1 14 Sudeste 30 Sudeste 0 -- -- 62
2020-03-14 13:00:00 13.5 5 Este 19 Noroeste 0 -- -- 66
2020-03-14 12:00:00 12.5 10 Noroeste 22 Noroeste 0 -- -- 62
2020-03-14 11:00:00 10.7 4 Sudeste 12 Este 0 -- -- 72
2020-03-14 10:00:00 7.8 3 Sudoeste 9 Sudeste 0 -- -- 84
2020-03-14 09:00:00 4.8 3 Sur 6 Sudeste 0 -- -- 98
2020-03-14 08:00:00 3.1 2 Oeste 5 Oeste 0 -- -- 98
2020-03-14 07:00:00 3.1 3 Oeste 4 Oeste 0 -- -- 97
2020-03-14 06:00:00 3.4 2 Sudoeste 4 Sudoeste 0 -- -- 96
2020-03-14 05:00:00 4 0 Calma 4 Sudeste 0 -- -- 95
2020-03-14 04:00:00 5.1 0 Calma 6 Noroeste 0 -- -- 91
2020-03-14 03:00:00 6.5 0 Calma 6 Este 0 -- -- 84
2020-03-14 02:00:00 8 3 Nordeste 8 Norte 0 -- -- 76
2020-03-14 01:00:00 7.7 3 Oeste 5 Sudeste 0 -- -- 84
2020-03-14 00:00:00 8.2 0 Calma 8 Noroeste 0 -- -- 83
2020-03-13 23:00:00 8.6 5 Noroeste 10 Noroeste 0 -- -- 77
2020-03-13 22:00:00 8.7 4 Norte 12 Norte 0 -- -- 77
2020-03-13 21:00:00 8.4 5 Nordeste 10 Nordeste 0 -- -- 82
2020-03-13 20:00:00 9 5 Nordeste 12 Nordeste 0 -- -- 80
2020-03-13 19:00:00 9.6 5 Nordeste 11 Este 0 -- -- 77
2020-03-13 18:00:00 10.6 4 Norte 18 Este 0 -- -- 74
2020-03-13 17:00:00 11.7 6 Nordeste 16 Este 0 -- -- 69
2020-03-13 16:00:00 12.2 5 Sur 16 Noroeste 0 -- -- 68
2020-03-13 15:00:00 12.4 6 Noroeste 15 Este 0 -- -- 67
2020-03-13 14:00:00 11.2 6 Noroeste 13 Noroeste 0 -- -- 75
2020-03-13 13:00:00 10.9 5 Noroeste 19 Nordeste 0 -- -- 76
2020-03-13 12:00:00 10.7 9 Este 28 Este 0 -- -- 75
2020-03-13 11:00:00 9.9 10 Este 18 Sudeste 0 -- -- 84
2020-03-13 10:00:00 9.3 7 Este 12 Este 0 -- -- 91
2020-03-13 09:00:00 8.4 3 Nordeste 11 Norte 0 -- -- 93
2020-03-13 08:00:00 8 5 Norte 11 Norte 0.2 -- -- 96
2020-03-13 07:00:00 8 5 Norte 13 Nordeste 0 -- -- 95
2020-03-13 06:00:00 7.9 4 Norte 10 Nordeste 0 -- -- 98
2020-03-13 05:00:00 7.9 3 Nordeste 17 Nordeste 0 -- -- 97
2020-03-13 04:00:00 8.4 4 Norte 17 Norte 0 -- -- 91
2020-03-13 03:00:00 8.4 7 Nordeste 19 Nordeste 0 -- -- 90
2020-03-13 02:00:00 8.7 8 Este 22 Nordeste 0 -- -- 98
2020-03-13 01:00:00 9.3 6 Nordeste 13 Nordeste 0 -- -- 98
2020-03-13 00:00:00 9.5 5 Nordeste 15 Este 0 -- -- 98
2020-03-12 23:00:00 10.1 7 Nordeste 16 Este 0.2 -- -- 93
2020-03-12 22:00:00 10.6 4 Nordeste 9 Este 0 -- -- 96
2020-03-12 21:00:00 11 4 Nordeste 10 Este 0 -- -- 92
2020-03-12 20:00:00 11.3 4 Nordeste 11 Nordeste 0 -- -- 89
2020-03-12 19:00:00 11.6 6 Este 19 Este 0 -- -- 88
2020-03-12 18:00:00 11.9 6 Este 15 Este 0 -- -- 89
2020-03-12 17:00:00 12.3 4 Nordeste 11 Norte 0 -- -- 89
2020-03-12 16:00:00 12.8 5 Este 16 Este 0 -- -- 88
2020-03-12 15:00:00 12.6 4 Noroeste 12 Nordeste 0 -- -- 94
2020-03-12 14:00:00 12.6 4 Nordeste 11 Nordeste 0 -- -- 91
2020-03-12 13:00:00 12.7 5 Este 10 Este 0 -- -- 93
2020-03-12 12:00:00 11.9 0 Calma 4 Oeste 0 -- -- 99
2020-03-12 11:00:00 11.3 0 Calma 4 Sur 0 -- -- 100
2020-03-12 10:00:00 10.7 0 Calma 4 Este 0.2 -- -- 100
2020-03-12 09:00:00 10.3 0 Calma 4 Oeste 0 -- -- 100
2020-03-12 08:00:00 10 0 Calma 4 Este 0.2 -- -- 100
2020-03-12 07:00:00 10 0 Calma 2 Sudeste 0.2 -- -- 100
2020-03-12 06:00:00 9.9 0 Calma 2 Noroeste 0 -- -- 99
2020-03-12 05:00:00 9.8 0 Calma 9 Nordeste 0 -- -- 99
2020-03-12 04:00:00 9.9 5 Este 9 Este 0 -- -- 99
2020-03-12 03:00:00 10.2 0 Calma 4 Este 0 -- -- 98
2020-03-12 02:00:00 10.4 0 Calma 4 Sudoeste 0 -- -- 97
2020-03-12 01:00:00 10.9 0 Calma 3 Noroeste 0 -- -- 96
2020-03-12 00:00:00 11.5 0 Calma 3 Noroeste 0 -- -- 94
2020-03-11 23:00:00 12.1 0 Calma 3 Sudeste 0 -- -- 92
2020-03-11 22:00:00 12.9 0 Calma 4 Noroeste 0 -- -- 89
2020-03-11 21:00:00 14 2 Oeste 6 Noroeste 0 -- -- 85
2020-03-11 20:00:00 14.8 3 Nordeste 12 Este 0 -- -- 81
2020-03-11 19:00:00 16.8 6 Nordeste 19 Este 0 -- -- 74
2020-03-11 18:00:00 18.6 8 Nordeste 21 Este 0 -- -- 67
2020-03-11 17:00:00 20.1 15 Este 22 Este 0 -- -- 61
2020-03-11 16:00:00 20.6 13 Este 21 Este 0 -- -- 57
2020-03-11 15:00:00 20.9 10 Este 19 Este 0 -- -- 54
2020-03-11 14:00:00 20.2 11 Este 19 Este 0 -- -- 62
2020-03-11 13:00:00 18.3 11 Este 15 Este 0 -- -- 68
2020-03-11 12:00:00 14.8 4 Sudeste 9 Sudeste 0 -- -- 80
2020-03-11 11:00:00 10 2 Sudoeste 6 Este 0 -- -- 100
2020-03-11 10:00:00 7.1 3 Oeste 6 Este 0 -- -- 100
2020-03-11 09:00:00 5.7 0 Calma 5 Oeste 0 -- -- 100
2020-03-11 08:00:00 5.4 0 Calma 7 Oeste 0 -- -- 100
2020-03-11 07:00:00 5.5 4 Oeste 6 Oeste 0 -- -- 100
2020-03-11 06:00:00 5.8 0 Calma 4 Oeste 0 -- -- 100
2020-03-11 05:00:00 6.1 2 Noroeste 5 Oeste 0 -- -- 100
2020-03-11 04:00:00 6.3 2 Sudoeste 4 Sudoeste 0 -- -- 100
2020-03-11 03:00:00 6.4 0 Calma 4 Oeste 0 -- -- 100
2020-03-11 02:00:00 6.9 3 Oeste 4 Oeste 0 -- -- 100
2020-03-11 01:00:00 7.1 0 Calma 4 Noroeste 0 -- -- 99
2020-03-11 00:00:00 8 3 Noroeste 5 Sudeste 0 -- -- 99
2020-03-10 23:00:00 8.1 3 Este 6 Sudoeste 0 -- -- 97
2020-03-10 22:00:00 9 0 Calma 3 Sudoeste 0 -- -- 94
2020-03-10 21:00:00 9.9 2 Sudeste 4 Sudeste 0 -- -- 90
2020-03-10 20:00:00 10.5 4 Este 14 Este 0 -- -- 87
2020-03-10 19:00:00 11.5 9 Nordeste 25 Este 0 -- -- 83
2020-03-10 18:00:00 12.8 15 Este 29 Este 0 -- -- 80
2020-03-10 17:00:00 13.9 18 Este 29 Este 0 -- -- 77
2020-03-10 16:00:00 15.2 15 Este 26 Este 0 -- -- 72
2020-03-10 15:00:00 15.5 17 Este 26 Este 0 -- -- 69
2020-03-10 14:00:00 14.8 12 Este 22 Este 0 -- -- 77
2020-03-10 13:00:00 12.8 8 Este 13 Sudeste 0 -- -- 92
2020-03-10 12:00:00 9.8 5 Sudeste 9 Este 0 -- -- 100
2020-03-10 11:00:00 7.6 3 Sudeste 6 Sudeste 0 -- -- 100
2020-03-10 10:00:00 5.8 3 Sudeste 6 Sudeste 0 -- -- 100
2020-03-10 09:00:00 5.1 3 Noroeste 5 Noroeste 0 -- -- 100
2020-03-10 08:00:00 5 0 Calma 4 Sudeste 0.2 -- -- 100
2020-03-10 07:00:00 5 0 Calma 3 Oeste 0 -- -- 100
2020-03-10 06:00:00 5.2 0 Calma 4 Noroeste 0 -- -- 100
2020-03-10 05:00:00 5.4 3 Oeste 5 Oeste 0 -- -- 100
2020-03-10 04:00:00 5.6 2 Oeste 6 Oeste 0 -- -- 100
2020-03-10 03:00:00 5.8 0 Calma 5 Sudoeste 0 -- -- 100
2020-03-10 02:00:00 5.9 3 Sudoeste 8 Sudoeste 0 -- -- 100
2020-03-10 01:00:00 6.2 2 Oeste 6 Noroeste 0 -- -- 100
2020-03-10 00:00:00 6.8 0 Calma 3 Noroeste 0 -- -- 100
2020-03-09 23:00:00 7.1 0 Calma 4 Este 0 -- -- 100
2020-03-09 22:00:00 7.6 3 Este 5 Nordeste 0 -- -- 99
2020-03-09 21:00:00 7.7 2 Nordeste 8 Este 0 -- -- 99
2020-03-09 20:00:00 8.1 4 Nordeste 11 Noroeste 0 -- -- 98
2020-03-09 19:00:00 8.1 4 Noroeste 12 Este 0 -- -- 99
2020-03-09 18:00:00 8.2 4 Este 9 Este 0.2 -- -- 99
2020-03-09 17:00:00 8.6 3 Norte 18 Norte 0.4 -- -- 96
2020-03-09 16:00:00 8.7 5 Norte 26 Norte 1 -- -- 92
2020-03-09 15:00:00 9.6 4 Sudeste 32 Noroeste 0.4 -- -- 90
2020-03-09 14:00:00 9.4 4 Este 10 Sudeste 0.2 -- -- 95
2020-03-09 13:00:00 9.1 7 Este 22 Oeste 1.4 -- -- 93
2020-03-09 12:00:00 10 10 Noroeste 32 Noroeste 0 -- -- 83
2020-03-09 11:00:00 9 8 Sudoeste 21 Norte 0 -- -- 87
2020-03-09 10:00:00 7.9 5 Este 11 Este 0 -- -- 99
2020-03-09 09:00:00 7.4 5 Sudoeste 16 Este 0.4 -- -- 99
2020-03-09 08:00:00 7.1 9 Este 14 Este 0 -- -- 99
2020-03-09 07:00:00 7 5 Este 12 Este 0.4 -- -- 99
2020-03-09 06:00:00 7 7 Este 16 Oeste 0.8 -- -- 98
2020-03-09 05:00:00 7.1 6 Oeste 18 Oeste 1.8 -- -- 98
2020-03-09 04:00:00 7.7 3 Este 14 Sudoeste 2 -- -- 95
2020-03-09 03:00:00 8.5 4 Sur 28 Sudoeste 1.2 -- -- 86
2020-03-09 02:00:00 9.5 5 Oeste 18 Sudeste 0 -- -- 77
2020-03-09 01:00:00 9.4 6 Sudoeste 35 Sudoeste 0.2 -- -- 84
2020-03-09 00:00:00 10.4 4 Oeste 21 Oeste 0 -- -- 75
2020-03-08 23:00:00 10.5 5 Noroeste 19 Oeste 0 -- -- 76
2020-03-08 22:00:00 10.9 7 Noroeste 14 Noroeste 0 -- -- 76
2020-03-08 21:00:00 11.2 3 Este 10 Sudoeste 0 -- -- 79
2020-03-08 20:00:00 11.4 6 Oeste 18 Noroeste 0 -- -- 78
2020-03-08 19:00:00 11.9 11 Noroeste 19 Noroeste 0 -- -- 81
2020-03-08 18:00:00 12.9 5 Nordeste 17 Nordeste 0 -- -- 79
2020-03-08 17:00:00 13.5 10 Este 19 Nordeste 0 -- -- 74
2020-03-08 16:00:00 14.2 6 Nordeste 14 Nordeste 0 -- -- 72
2020-03-08 15:00:00 13.7 7 Este 12 Este 0 -- -- 75
2020-03-08 14:00:00 12.6 2 Norte 8 Sudeste 0 -- -- 81
2020-03-08 13:00:00 10.3 4 Este 10 Sudeste 0 -- -- 96
2020-03-08 12:00:00 7.9 5 Sudeste 9 Sur 0 -- -- 100
2020-03-08 11:00:00 5.7 3 Sudoeste 10 Oeste 0 -- -- 100
2020-03-08 10:00:00 4.3 3 Sur 8 Sudoeste 0 -- -- 100
2020-03-08 09:00:00 3.6 4 Oeste 5 Oeste 0 -- -- 100
2020-03-08 08:00:00 3.6 2 Oeste 6 Oeste 0 -- -- 100
2020-03-08 07:00:00 3.6 3 Noroeste 10 Noroeste 0 -- -- 100
2020-03-08 06:00:00 3.8 3 Noroeste 8 Noroeste 0 -- -- 100
2020-03-08 05:00:00 3.9 3 Norte 8 Noroeste 0 -- -- 100
2020-03-08 04:00:00 4.1 4 Noroeste 8 Oeste 0 -- -- 100
2020-03-08 03:00:00 4.7 3 Oeste 6 Oeste 0 -- -- 100
2020-03-08 02:00:00 4.9 3 Sur 7 Oeste 0 -- -- 100
2020-03-08 01:00:00 5.2 2 Este 7 Noroeste 0 -- -- 100
2020-03-08 00:00:00 5.5 2 Oeste 5 Sudoeste 0 -- -- 100
2020-03-07 23:00:00 5.7 4 Oeste 6 Sudoeste 0 -- -- 100
2020-03-07 22:00:00 6.5 4 Oeste 5 Oeste 0 -- -- 98
2020-03-07 21:00:00 7.2 5 Oeste 10 Este 0 -- -- 96
2020-03-07 20:00:00 8.6 7 Este 12 Este 0 -- -- 96
2020-03-07 19:00:00 9.2 2 Nordeste 8 Este 0 -- -- 95
2020-03-07 18:00:00 9.6 2 Oeste 8 Sudoeste 0.2 -- -- 92
2020-03-07 17:00:00 9.9 4 Sur 27 Oeste 0 -- -- 90
2020-03-07 16:00:00 9.6 9 Noroeste 23 Noroeste 0 -- -- 89
2020-03-07 15:00:00 10.1 9 Noroeste 26 Norte 0.2 -- -- 92
2020-03-07 14:00:00 9.6 9 Noroeste 25 Norte 1.2 -- -- 98
2020-03-07 13:00:00 9.6 6 Sudeste 11 Este 1.6 -- -- 99
2020-03-07 12:00:00 9.5 5 Nordeste 13 Sur 0.6 -- -- 98
2020-03-07 11:00:00 9.4 5 Sudeste 13 Este 0 -- -- 97
2020-03-07 10:00:00 8.4 4 Sudeste 15 Noroeste 0 -- -- 97
2020-03-07 09:00:00 8 8 Norte 24 Norte 0.6 -- -- 95
2020-03-07 08:00:00 7.7 9 Norte 19 Norte 0.2 -- -- 96
2020-03-07 07:00:00 6.7 4 Sudeste 10 Este 0.4 -- -- 99
2020-03-07 06:00:00 6.1 4 Este 14 Noroeste 2.6 -- -- 99
2020-03-07 05:00:00 5.4 3 Sur 12 Este 0.2 -- -- 99
2020-03-07 04:00:00 5 4 Este 9 Norte 0 -- -- 98
2020-03-07 03:00:00 5.4 2 Nordeste 16 Oeste 1.8 -- -- 97
2020-03-07 02:00:00 5.4 4 Sudoeste 27 Norte 1.2 -- -- 97
2020-03-07 01:00:00 5.3 6 Nordeste 33 Noroeste 1.2 -- -- 97
2020-03-07 00:00:00 5.5 3 Este 29 Norte 0.6 -- -- 96
2020-03-06 23:00:00 5.4 11 Norte 53 Noroeste 1.4 -- -- 92
2020-03-06 22:00:00 5.5 6 Norte 26 Oeste 1.2 -- -- 88
2020-03-06 21:00:00 6.2 11 Noroeste 28 Noroeste 0.4 -- -- 88
2020-03-06 20:00:00 5.9 9 Noroeste 47 Noroeste 1.2 -- -- 88
2020-03-06 19:00:00 6.6 19 Noroeste 44 Noroeste 0 -- -- 83
2020-03-06 18:00:00 6.7 9 Noroeste 27 Norte 0.4 -- -- 84
2020-03-06 17:00:00 6.9 12 Norte 48 Noroeste 0.4 -- -- 82
2020-03-06 16:00:00 6.3 13 Noroeste 44 Noroeste 0.2 -- -- 84
2020-03-06 15:00:00 6.3 7 Sudeste 73 Sudoeste 1.8 -- -- 88
2020-03-06 14:00:00 6.5 10 Sudoeste 37 Oeste 1.8 -- -- 91
2020-03-06 13:00:00 7.5 10 Sur 25 Oeste 0.2 -- -- 90
2020-03-06 12:00:00 5.3 8 Sur 35 Oeste 1.2 -- -- 99
2020-03-06 11:00:00 3.7 8 Oeste 47 Oeste 2.4 -- -- 97
2020-03-06 10:00:00 3.7 5 Sudeste 24 Sudoeste 1.2 -- -- 98
2020-03-06 09:00:00 3.5 18 Oeste 34 Oeste 4.8 -- -- 95
2020-03-06 08:00:00 5 22 Oeste 43 Oeste 1.2 -- -- 89
2020-03-06 07:00:00 5.1 17 Oeste 36 Noroeste 2.6 -- -- 91
2020-03-06 06:00:00 6.2 10 Oeste 25 Oeste 1.2 -- -- 86
2020-03-06 05:00:00 5.6 3 Sudoeste 6 Sur 0 -- -- 91
2020-03-06 04:00:00 5.2 0 Calma 12 Este 0 -- -- 94
2020-03-06 03:00:00 5.4 7 Noroeste 9 Noroeste 0 -- -- 93
2020-03-06 02:00:00 5.6 4 Noroeste 9 Noroeste 0 -- -- 91
2020-03-06 01:00:00 7 4 Noroeste 8 Sudoeste 0 -- -- 86
2020-03-06 00:00:00 8 4 Oeste 24 Oeste 0 -- -- 80
2020-03-05 23:00:00 8.2 13 Oeste 26 Oeste 0 -- -- 81
2020-03-05 22:00:00 8 9 Oeste 32 Oeste 0 -- -- 84
2020-03-05 21:00:00 7.9 10 Oeste 29 Oeste 0.6 -- -- 87
2020-03-05 20:00:00 8.6 15 Oeste 30 Oeste 0.4 -- -- 80
2020-03-05 19:00:00 9 10 Sudoeste 36 Noroeste 0 -- -- 74
2020-03-05 18:00:00 9.7 15 Noroeste 47 Noroeste 0.2 -- -- 81
2020-03-05 17:00:00 10 11 Sudoeste 39 Sudoeste 0.2 -- -- 80
2020-03-05 16:00:00 10.3 15 Noroeste 44 Noroeste 0.4 -- -- 81
2020-03-05 15:00:00 11.9 9 Nordeste 42 Norte 0 -- -- 79
2020-03-05 14:00:00 12.6 14 Oeste 26 Oeste 0 -- -- 85
2020-03-05 13:00:00 10.3 5 Sudoeste 14 Sudeste 0.2 -- -- 98
2020-03-05 12:00:00 9.5 8 Este 16 Este 1.4 -- -- 99
2020-03-05 11:00:00 9.8 6 Sudeste 17 Este 8.6 -- -- 98
2020-03-05 10:00:00 10.7 15 Este 33 Oeste 3.2 -- -- 94
2020-03-05 09:00:00 15.5 27 Oeste 67 Sudoeste 0 -- -- 69
2020-03-05 08:00:00 16.3 40 Oeste 68 Sudoeste 0 -- -- 65
2020-03-05 07:00:00 16.1 18 Oeste 44 Oeste 0.2 -- -- 66
2020-03-05 06:00:00 16.1 14 Sudoeste 52 Sudoeste 0 -- -- 70
2020-03-05 05:00:00 16 14 Oeste 36 Sudoeste 0 -- -- 68
2020-03-05 04:00:00 15.8 19 Oeste 41 Sudoeste 0 -- -- 69
2020-03-05 03:00:00 15.3 18 Oeste 37 Sudoeste 0 -- -- 70
2020-03-05 02:00:00 15 8 Oeste 17 Oeste 0 -- -- 72
2020-03-05 01:00:00 15.2 8 Oeste 23 Sudoeste 0 -- -- 72
2020-03-05 00:00:00 15 8 Oeste 18 Oeste 0 -- -- 74